Terminal Aerodrome Forecast
Issued by NWS Northern Indiana

Home | Current Version | Previous Version | Graphics & Text | Print | Product List | Glossary On
Versions: 1 2 3 4 5 6 7 8 9 10 11 12 13 14 15 16 17 18
031
FTUS43 KIWX 220736 AAA
TAFFWA
TAF AMD
KFWA 220736Z 2208/2306 22005KT 6SM BR SCT025 BKN250
     FM221100 24005KT 6SM HZ SCT080 BKN150
     FM221800 25008KT P6SM VCTS BKN040CB
     FM230300 25004KT 6SM HZ BKN100=

USA.gov is the U.S. government's official web portal to all federal, state and local government web resources and services.